Time;durP1;ratioP1;P1;durP2;ratioP2;P2;SDS_P1;SDS_P2;PMS_P1;PMS_P2;Temp;Humidity;BMP_temperature;BMP_pressure;BME280_temperature;BME280_humidity;BME280_pressure;Samples;Min_cycle;Max_cycle;Signal;HPM_P1;HPM_P2
2023/05/01 00:01:30;;;;;;;0.40;0.40;;;18.70;59.90;;;18.77;42.50;95157.75;5094624;28;20191;-63
2023/05/01 00:03:57;;;;;;;0.50;0.50;;;18.70;59.80;;;18.75;42.35;95151.88;5095528;28;20190;-63
2023/05/01 00:06:25;;;;;;;0.60;0.60;;;18.60;59.70;;;18.75;42.72;95156.38;5098188;28;20269;-62
2023/05/01 00:08:52;;;;;;;0.50;0.50;;;18.60;59.70;;;18.72;42.52;95153.16;5098307;28;20186;-62
2023/05/01 00:11:19;;;;;;;0.60;0.60;;;18.60;59.70;;;18.70;42.64;95149.94;5098258;28;20194;-62
2023/05/01 00:13:46;;;;;;;0.50;0.50;;;18.60;59.70;;;18.68;42.16;95152.00;5097834;28;20190;-62
2023/05/01 00:16:15;;;;;;;0.40;0.40;;;18.60;59.70;;;18.66;42.21;95148.81;5097789;28;20241;-62
2023/05/01 00:18:43;;;;;;;0.60;0.60;;;18.60;59.70;;;18.65;42.39;95151.66;5098946;28;20196;-62
2023/05/01 00:21:10;;;;;;;0.60;0.60;;;18.50;59.60;;;18.62;42.26;95146.84;5097703;28;20251;-62
2023/05/01 00:23:37;;;;;;;0.52;0.52;;;18.60;59.60;;;18.58;42.31;95143.84;5098162;28;20190;-62
2023/05/01 00:26:04;;;;;;;0.60;0.60;;;18.50;60.60;;;18.59;42.62;95148.13;5098006;28;20201;-62
2023/05/01 00:28:31;;;;;;;0.50;0.50;;;18.50;59.60;;;18.59;42.27;95147.31;5097338;28;20293;-62
2023/05/01 00:30:58;;;;;;;0.50;0.50;;;18.50;59.60;;;18.56;41.93;95140.63;5097299;28;20251;-62
2023/05/01 00:33:25;;;;;;;0.50;0.50;;;18.50;59.60;;;18.55;42.33;95147.78;5080216;28;20295;-62
2023/05/01 00:35:52;;;;;;;0.50;0.50;;;18.50;59.60;;;18.53;42.23;95143.75;5098743;28;20605;-62
2023/05/01 00:38:20;;;;;;;0.60;0.60;;;18.40;59.60;;;18.52;42.31;95142.16;5097110;28;20263;-62
2023/05/01 00:40:47;;;;;;;0.60;0.60;;;18.40;60.50;;;18.50;42.03;95128.28;5080167;28;20198;-62
2023/05/01 00:43:14;;;;;;;0.50;0.50;;;18.40;59.50;;;18.45;42.41;95131.63;5098059;28;20221;-62
2023/05/01 00:45:45;;;;;;;0.50;0.50;;;18.40;59.60;;;18.48;42.44;95136.50;5079997;28;20202;-62
2023/05/01 00:48:13;;;;;;;0.50;0.50;;;18.40;59.60;;;18.41;42.15;95125.19;5096924;28;20210;-62
2023/05/01 00:50:43;;;;;;;0.68;0.68;;;18.30;59.50;;;18.45;41.98;95126.34;5097868;28;20270;-62
2023/05/01 00:53:11;;;;;;;0.50;0.50;;;18.30;59.50;;;18.43;42.27;95131.09;5097813;28;20205;-62
2023/05/01 00:55:41;;;;;;;0.50;0.50;;;18.30;59.50;;;18.42;42.27;95133.97;5096727;28;20289;-62
2023/05/01 00:58:10;;;;;;;0.60;0.60;;;18.30;59.50;;;18.39;42.18;95122.78;5096768;28;20191;-62
2023/05/01 01:00:38;;;;;;;0.50;0.50;;;18.30;59.60;;;18.39;42.11;95136.06;5097056;28;20281;-62
2023/05/01 01:03:05;;;;;;;0.50;0.50;;;18.30;59.60;;;18.37;42.37;95130.16;5096664;28;20197;-62
2023/05/01 01:05:42;;;;;;;0.40;0.40;;;18.30;59.60;;;18.37;42.59;95126.69;5096483;28;20289;-62
2023/05/01 01:08:27;;;;;;;0.50;0.50;;;18.30;59.60;;;18.33;42.47;95118.38;5096944;28;20197;-62
2023/05/01 01:11:18;;;;;;;0.57;0.57;;;18.30;59.80;;;18.30;42.41;95118.09;5079626;28;20195;-62
2023/05/01 01:13:58;;;;;;;0.50;0.50;;;18.20;59.60;;;18.28;42.19;95115.63;5097442;28;20235;-62
2023/05/01 01:16:41;;;;;;;0.50;0.50;;;18.20;59.60;;;18.27;42.63;95121.19;5095964;28;20198;-62
2023/05/01 01:19:32;;;;;;;0.60;0.60;;;18.20;59.60;;;18.24;42.41;95125.91;5096178;28;20194;-62
2023/05/01 01:22:12;;;;;;;0.52;0.52;;;18.20;59.60;;;18.24;42.37;95122.47;5096281;28;20199;-62
2023/05/01 01:25:09;;;;;;;0.50;0.50;;;18.20;59.80;;;18.21;42.41;95123.75;5096759;28;20558;-62
2023/05/01 01:28:07;;;;;;;0.57;0.57;;;18.20;59.70;;;18.17;42.61;95117.28;5096875;28;20206;-62
2023/05/01 01:31:21;;;;;;;0.60;0.60;;;18.10;59.60;;;18.15;42.85;95115.91;5097354;28;20190;-62
2023/05/01 01:34:08;;;;;;;0.50;0.50;;;18.10;59.80;;;18.13;42.66;95112.69;5047732;28;20239;-62
2023/05/01 01:37:01;;;;;;;0.50;0.50;;;18.10;59.80;;;18.11;42.52;95112.91;5055743;28;20194;-62
2023/05/01 01:39:49;;;;;;;0.50;0.50;;;18.10;59.90;;;18.10;42.96;95111.28;5072460;28;20191;-62
2023/05/01 01:42:21;;;;;;;0.57;0.57;;;18.10;60.00;;;18.09;42.46;95109.69;5056077;28;20213;-62
2023/05/01 01:44:54;;;;;;;0.55;0.55;;;18.10;60.00;;;18.08;42.87;95108.88;5055798;28;20186;-62
2023/05/01 01:47:27;;;;;;;0.50;0.50;;;18.10;60.10;;;18.07;42.55;95101.94;5039137;28;20721;-62
2023/05/01 01:49:56;;;;;;;0.60;0.60;;;18.00;60.10;;;18.07;42.61;95095.84;5072303;28;20192;-62
2023/05/01 01:52:25;;;;;;;0.60;0.60;;;18.10;60.10;;;18.08;43.10;95105.44;5055869;28;20188;-62
2023/05/01 01:54:58;;;;;;;0.50;0.50;;;18.00;60.10;;;18.07;42.87;95095.84;5055583;28;20195;-62
2023/05/01 01:57:27;;;;;;;0.50;0.50;;;18.00;60.10;;;18.02;42.92;95090.44;5039560;28;20196;-62
2023/05/01 01:59:56;;;;;;;0.50;0.50;;;18.10;60.20;;;18.07;43.02;95095.84;5055715;28;20290;-62
2023/05/01 02:02:25;;;;;;;0.50;0.50;;;18.00;60.10;;;18.05;43.36;95095.25;5055763;28;20206;-62
2023/05/01 02:04:56;;;;;;;0.50;0.50;;;18.00;60.10;;;18.04;43.10;95088.34;5039946;28;20227;-62
2023/05/01 02:07:24;;;;;;;0.55;0.55;;;18.00;60.20;;;18.04;42.95;95091.00;5039914;28;20600;-62
2023/05/01 02:09:53;;;;;;;0.50;0.50;;;18.00;60.20;;;18.04;42.99;95088.34;5056340;28;20196;-62
2023/05/01 02:12:25;;;;;;;0.40;0.40;;;18.00;60.20;;;18.01;43.18;95086.97;5056095;28;20199;-62
2023/05/01 02:14:53;;;;;;;0.50;0.50;;;18.00;60.20;;;18.01;43.02;95083.50;5039716;28;20627;-62
2023/05/01 02:17:21;;;;;;;0.57;0.57;;;18.00;60.20;;;18.01;43.04;95086.16;5039865;28;20203;-62
2023/05/01 02:19:51;;;;;;;0.50;0.50;;;18.00;60.20;;;18.00;43.41;95073.94;5056681;28;20206;-62
2023/05/01 02:22:27;;;;;;;0.50;0.50;;;18.00;60.20;;;17.98;43.18;95065.41;5056607;28;20260;-62
2023/05/01 02:24:56;;;;;;;0.50;0.50;;;18.00;60.20;;;17.97;43.40;95069.91;5057128;28;20183;-62
2023/05/01 02:27:30;;;;;;;0.50;0.50;;;18.00;60.30;;;17.96;43.00;95057.69;5056397;28;20211;-62
2023/05/01 02:29:57;;;;;;;0.50;0.50;;;17.90;61.20;;;17.96;43.17;95062.97;5056618;28;20186;-62
2023/05/01 02:32:25;;;;;;;0.50;0.50;;;18.00;60.20;;;17.96;43.42;95056.88;5057002;28;20211;-62
2023/05/01 02:34:52;;;;;;;0.43;0.43;;;18.00;60.20;;;17.91;43.29;95042.41;5080025;28;20229;-62
2023/05/01 02:37:19;;;;;;;0.50;0.50;;;17.90;60.10;;;17.92;43.11;95040.59;5098270;28;20243;-62
2023/05/01 02:39:47;;;;;;;0.50;0.50;;;18.00;60.10;;;17.91;43.11;95047.72;5097701;28;20254;-62
2023/05/01 02:42:16;;;;;;;0.50;0.50;;;17.90;60.00;;;17.90;42.73;95042.66;5098373;28;20198;-62
2023/05/01 02:45:05;;;;;;;0.50;0.50;;;17.90;60.00;;;17.87;43.00;95043.13;5080543;28;20202;-62
2023/05/01 02:47:37;;;;;;;0.80;0.80;;;17.90;60.00;;;17.84;42.95;95044.41;5080935;28;20202;-61
2023/05/01 02:50:06;;;;;;;0.50;0.50;;;17.90;60.00;;;17.84;43.09;95046.25;5080599;28;20218;-62
2023/05/01 02:52:35;;;;;;;0.57;0.57;;;17.80;59.80;;;17.82;42.94;95045.66;5080341;28;20198;-62
2023/05/01 02:55:28;;;;;;;0.60;0.60;;;17.80;59.70;;;17.79;42.56;95043.50;5081837;28;20198;-62
2023/05/01 02:57:59;;;;;;;0.50;0.50;;;17.80;59.70;;;17.79;43.10;95035.53;5063546;28;20600;-61
2023/05/01 03:00:26;;;;;;;0.60;0.60;;;17.80;59.80;;;17.77;42.97;95036.59;5062996;28;20633;-62
2023/05/01 03:02:53;;;;;;;0.60;0.60;;;17.80;59.80;;;17.74;43.28;95037.03;5079586;28;20198;-62
2023/05/01 03:05:21;;;;;;;0.50;0.50;;;17.80;59.80;;;17.74;42.66;95037.03;5079411;28;20255;-62
2023/05/01 03:07:50;;;;;;;0.50;0.50;;;17.70;59.70;;;17.74;42.81;95036.25;5079332;28;20210;-61
2023/05/01 03:10:17;;;;;;;0.60;0.60;;;17.80;59.90;;;17.72;43.18;95033.00;5080464;28;20225;-61
2023/05/01 03:12:44;;;;;;;0.60;0.60;;;17.70;59.80;;;17.71;43.05;95029.56;5079220;28;20280;-61
2023/05/01 03:15:12;;;;;;;0.52;0.52;;;17.70;59.80;;;17.71;43.25;95026.09;5096483;28;20204;-62
2023/05/01 03:17:39;;;;;;;0.50;0.50;;;17.70;59.90;;;17.68;43.19;95018.59;5096766;28;20267;-61
2023/05/01 03:20:08;;;;;;;0.52;0.52;;;17.70;59.90;;;17.67;43.17;95024.94;5096586;28;20273;-61
2023/05/01 03:22:35;;;;;;;0.52;0.52;;;17.70;59.90;;;17.65;42.87;95025.19;5096186;28;20580;-61
2023/05/01 03:25:06;;;;;;;0.60;0.60;;;17.70;60.00;;;17.65;42.82;95019.06;5096270;28;20224;-62
2023/05/01 03:27:33;;;;;;;0.50;0.50;;;17.70;60.00;;;17.64;43.09;95022.75;5094417;28;20213;-61
2023/05/01 03:30:00;;;;;;;0.50;0.50;;;17.70;60.00;;;17.63;43.52;95015.84;5077662;28;20178;-61
2023/05/01 03:32:31;;;;;;;0.40;0.40;;;17.70;60.00;;;17.62;42.79;95028.28;5078170;28;20247;-62
2023/05/01 03:34:58;;;;;;;0.57;0.57;;;17.60;59.90;;;17.60;43.33;95020.56;5077686;28;20195;-61
2023/05/01 03:37:27;;;;;;;0.60;0.60;;;17.70;60.00;;;17.59;43.16;95023.47;5094115;28;20194;-61
2023/05/01 03:39:54;;;;;;;0.50;0.50;;;17.60;60.10;;;17.58;43.05;95017.34;5079314;28;20206;-61
2023/05/01 03:42:50;;;;;;;0.57;0.57;;;17.60;60.20;;;17.55;43.13;95036.38;5099183;28;20596;-61
2023/05/01 03:45:22;;;;;;;0.50;0.50;;;17.60;60.00;;;17.54;43.02;95018.84;5098183;28;20663;-61
2023/05/01 03:47:49;;;;;;;0.50;0.50;;;17.60;59.90;;;17.53;42.72;95027.84;5064536;28;20280;-61
2023/05/01 03:50:17;;;;;;;0.50;0.50;;;17.60;59.90;;;17.52;43.31;95020.94;5098024;28;20633;-61
2023/05/01 03:52:47;;;;;;;0.60;0.60;;;17.60;59.80;;;17.50;43.06;95022.19;5081193;28;20193;-61
2023/05/01 03:55:14;;;;;;;0.50;0.50;;;17.60;59.80;;;17.50;43.17;95019.56;5064542;28;20205;-61
2023/05/01 03:57:42;;;;;;;0.50;0.50;;;17.50;59.50;;;17.49;42.68;95023.22;5081098;28;20212;-61
2023/05/01 04:00:10;;;;;;;0.50;0.50;;;17.50;59.50;;;17.47;42.61;95020.81;5081121;28;20625;-62
2023/05/01 04:02:46;;;;;;;0.50;0.50;;;17.50;59.30;;;17.44;42.94;95024.75;5081886;28;20293;-61
2023/05/01 04:05:17;;;;;;;0.70;0.70;;;17.50;59.40;;;17.42;42.80;95023.38;5081011;28;20213;-61
2023/05/01 04:07:49;;;;;;;0.50;0.50;;;17.50;59.30;;;17.42;42.67;95023.38;5080845;28;20309;-61
2023/05/01 04:10:16;;;;;;;0.60;0.60;;;17.50;59.20;;;17.38;42.46;95011.59;5047605;28;20593;-61
2023/05/01 04:12:52;;;;;;;0.50;0.50;;;17.40;59.20;;;17.38;43.02;95006.28;5080791;28;20194;-61
2023/05/01 04:15:21;;;;;;;0.60;0.60;;;17.40;59.20;;;17.34;42.80;95011.25;5097613;28;20194;-61
2023/05/01 04:17:48;;;;;;;0.60;0.60;;;17.40;59.20;;;17.38;42.53;95014.25;5080741;28;20198;-61
2023/05/01 04:20:18;;;;;;;0.60;0.60;;;17.40;59.10;;;17.34;42.35;95005.94;5080952;28;20209;-61
2023/05/01 04:22:46;;;;;;;0.50;0.50;;;17.40;59.10;;;17.33;42.27;95012.28;5097510;28;20206;-61
2023/05/01 04:25:12;;;;;;;0.55;0.55;;;17.40;59.10;;;17.26;42.38;95008.97;5098417;28;20507;-61
2023/05/01 04:27:40;;;;;;;0.52;0.52;;;17.40;59.20;;;17.32;42.54;95020.47;5063969;28;20217;-61
2023/05/01 04:30:08;;;;;;;0.60;0.60;;;17.40;59.10;;;17.29;42.83;95014.59;5063954;28;20209;-61
2023/05/01 04:32:36;;;;;;;0.50;0.50;;;17.30;59.00;;;17.28;42.66;95012.19;5080260;28;20204;-61
2023/05/01 04:35:03;;;;;;;0.50;0.50;;;17.30;59.10;;;17.28;42.81;95020.13;5098529;28;20178;-61
2023/05/01 04:37:31;;;;;;;0.50;0.50;;;17.30;59.10;;;17.25;42.68;95013.44;5097224;28;20182;-61
2023/05/01 04:39:58;;;;;;;0.50;0.50;;;17.30;59.10;;;17.25;42.63;95021.41;5080153;28;20537;-61
2023/05/01 04:42:30;;;;;;;0.60;0.60;;;17.30;59.20;;;17.23;42.68;95020.81;5080244;28;20260;-61
2023/05/01 04:45:01;;;;;;;0.50;0.50;;;17.30;59.00;;;17.23;42.76;95020.81;5097232;28;20277;-61
2023/05/01 04:47:31;;;;;;;0.50;0.50;;;17.30;59.10;;;17.23;42.42;95028.78;5080545;28;20202;-61
2023/05/01 04:49:59;;;;;;;0.50;0.50;;;17.30;59.10;;;17.23;42.93;95022.69;5080222;28;20607;-61
2023/05/01 04:52:26;;;;;;;0.50;0.50;;;17.30;59.30;;;17.17;42.36;95020.94;5063059;28;20218;-61
2023/05/01 04:54:57;;;;;;;0.60;0.60;;;17.30;59.30;;;17.22;42.30;95016.59;5080583;28;20194;-61
2023/05/01 04:57:27;;;;;;;0.50;0.50;;;17.30;59.30;;;17.21;42.73;95027.41;5064217;28;20194;-61
2023/05/01 04:59:55;;;;;;;0.50;0.50;;;17.20;59.20;;;17.20;42.54;95020.47;5080420;28;20258;-61
2023/05/01 05:02:23;;;;;;;0.50;0.50;;;17.20;59.20;;;17.20;42.80;95023.94;5081405;28;20293;-61
2023/05/01 05:04:52;;;;;;;0.70;0.70;;;17.30;59.30;;;17.19;42.73;95010.94;5080789;28;20644;-62
2023/05/01 05:07:20;;;;;;;0.50;0.50;;;17.20;59.00;;;17.19;42.53;95017.03;5099104;28;20194;-62
2023/05/01 05:10:06;;;;;;;0.70;0.70;;;17.20;59.10;;;17.18;42.47;95020.72;5083878;28;20510;-61
2023/05/01 05:12:34;;;;;;;0.60;0.60;;;17.20;59.00;;;17.13;42.61;95016.09;5080855;28;20237;-62
2023/05/01 05:15:01;;;;;;;0.63;0.63;;;17.30;59.20;;;17.17;42.75;95020.94;5081588;28;20202;-62
2023/05/01 05:17:29;;;;;;;0.60;0.60;;;17.20;59.10;;;17.16;42.77;95022.78;5081318;28;20202;-62
2023/05/01 05:19:57;;;;;;;0.60;0.60;;;17.20;59.10;;;17.16;42.43;95014.81;5080530;28;20190;-62
2023/05/01 05:22:24;;;;;;;0.60;0.60;;;17.20;59.00;;;17.18;42.42;95022.56;5097799;28;20248;-62
2023/05/01 05:25:10;;;;;;;0.50;0.50;;;17.20;59.20;;;17.15;42.73;95017.72;5097791;28;20728;-62
2023/05/01 05:27:37;;;;;;;0.50;0.50;;;17.20;59.00;;;17.14;42.72;95011.63;5097254;28;20194;-62
2023/05/01 05:30:05;;;;;;;0.60;0.60;;;17.20;59.00;;;17.14;42.37;95019.56;5096180;28;20221;-62
2023/05/01 05:32:34;;;;;;;0.50;0.50;;;17.20;59.00;;;17.15;42.34;95004.47;5079158;28;20550;-62
2023/05/01 05:35:02;;;;;;;0.60;0.60;;;17.20;59.00;;;17.14;42.58;95006.31;5096343;28;20198;-62
2023/05/01 05:37:29;;;;;;;0.52;0.52;;;17.20;59.00;;;17.13;42.76;95002.84;5062643;28;20209;-62
2023/05/01 05:39:56;;;;;;;0.70;0.70;;;17.20;59.10;;;17.13;42.67;95005.50;5095931;28;20606;-62
2023/05/01 05:42:24;;;;;;;0.50;0.50;;;17.20;59.00;;;17.13;42.19;95000.19;5062756;28;20294;-62
2023/05/01 05:44:51;;;;;;;0.60;0.60;;;17.20;59.00;;;17.09;42.45;94993.75;5062575;28;20637;-62
2023/05/01 05:47:19;;;;;;;0.60;0.60;;;17.20;59.10;;;17.13;42.75;95005.50;5079373;28;20538;-62
2023/05/01 05:49:46;;;;;;;0.57;0.57;;;17.20;59.10;;;17.13;42.45;95010.78;5095699;28;20229;-62
2023/05/01 05:52:13;;;;;;;0.60;0.60;;;17.20;59.00;;;17.15;42.59;95004.47;5097178;28;20649;-62
2023/05/01 05:54:40;;;;;;;0.50;0.50;;;17.20;59.00;;;17.16;42.68;95012.19;5078820;28;20243;-62
2023/05/01 05:57:07;;;;;;;0.63;0.63;;;17.20;59.00;;;17.14;42.79;95003.66;5096837;28;20263;-62
2023/05/01 05:59:39;;;;;;;0.60;0.60;;;17.20;59.00;;;17.14;42.67;95001.03;5095890;28;20255;-62
2023/05/01 06:02:07;;;;;;;0.50;0.50;;;17.20;59.00;;;17.15;42.72;94997.34;5096019;28;20194;-62
2023/05/01 06:04:34;;;;;;;0.50;0.50;;;17.20;59.00;;;17.13;42.49;94989.59;5078050;28;20197;-62
2023/05/01 06:07:01;;;;;;;0.63;0.63;;;17.20;59.00;;;17.16;42.31;94993.63;5096692;28;20652;-62
2023/05/01 06:09:29;;;;;;;0.50;0.50;;;17.20;58.90;;;17.16;42.58;95001.56;5078491;28;20669;-62
2023/05/01 06:11:57;;;;;;;0.50;0.50;;;17.20;59.00;;;17.17;42.37;94999.75;5095636;28;20248;-62
2023/05/01 06:14:24;;;;;;;0.60;0.60;;;17.20;58.80;;;17.17;42.65;94995.25;5078430;28;20198;-62
2023/05/01 06:16:51;;;;;;;0.60;0.60;;;17.20;58.90;;;17.18;42.12;94990.75;5078409;28;20190;-62
2023/05/01 06:19:19;;;;;;;0.50;0.50;;;17.20;58.90;;;17.17;42.53;94995.25;5078636;28;20206;-62
2023/05/01 06:21:50;;;;;;;0.50;0.50;;;17.20;58.90;;;17.17;42.63;94992.59;5078272;28;20232;-62
2023/05/01 06:24:18;;;;;;;0.50;0.50;;;17.20;58.90;;;17.17;42.66;94986.50;5062172;28;20217;-62
2023/05/01 06:26:47;;;;;;;0.50;0.50;;;17.20;58.90;;;17.15;42.68;94986.72;5096125;28;20520;-62
2023/05/01 06:29:15;;;;;;;0.50;0.50;;;17.20;58.90;;;17.19;42.64;94987.09;5061778;28;20228;-62
2023/05/01 06:31:43;;;;;;;0.50;0.50;;;17.20;58.90;;;17.20;42.45;94983.38;5078059;28;20190;-63
2023/05/01 06:34:11;;;;;;;0.52;0.52;;;17.20;58.80;;;17.18;42.23;94986.25;5078006;28;20316;-62
2023/05/01 06:36:50;;;;;;;0.60;0.60;;;17.30;59.00;;;17.20;42.66;94983.38;5063315;28;20263;-62
2023/05/01 06:39:17;;;;;;;0.60;0.60;;;17.20;58.90;;;17.20;42.60;94981.53;5061549;28;20198;-62
2023/05/01 06:41:47;;;;;;;0.60;0.60;;;17.20;58.80;;;17.20;42.06;94981.53;5094771;28;20534;-63
2023/05/01 06:44:17;;;;;;;0.60;0.60;;;17.20;58.70;;;17.22;42.20;94976.81;5078749;28;20219;-63
2023/05/01 06:46:44;;;;;;;0.52;0.52;;;17.20;58.60;;;17.22;42.48;94974.16;5077793;28;20213;-62
2023/05/01 06:49:12;;;;;;;0.60;0.60;;;17.20;58.70;;;17.22;42.05;94966.22;5078361;28;20279;-63
2023/05/01 06:51:40;;;;;;;0.50;0.50;;;17.20;58.60;;;17.23;42.08;94964.38;5077566;28;20533;-63
2023/05/01 06:54:08;;;;;;;0.50;0.50;;;17.20;58.50;;;17.23;41.87;94972.31;5061221;28;20534;-63
2023/05/01 06:56:34;;;;;;;0.50;0.50;;;17.30;58.50;;;17.22;42.39;94965.41;5061308;28;20202;-63
2023/05/01 06:59:02;;;;;;;0.40;0.40;;;17.30;58.60;;;17.25;41.72;94975.53;5077637;28;20221;-63
2023/05/01 07:01:29;;;;;;;0.50;0.50;;;17.20;58.40;;;17.24;41.83;94969.44;5061036;28;20213;-63
2023/05/01 07:04:02;;;;;;;0.50;0.50;;;17.20;58.40;;;17.26;42.30;94963.91;5095677;28;20340;-63
2023/05/01 07:06:31;;;;;;;0.50;0.50;;;17.20;58.40;;;17.26;42.18;94967.34;5095737;28;20209;-63
2023/05/01 07:08:58;;;;;;;0.60;0.60;;;17.30;58.50;;;17.25;41.86;94959.66;5077797;28;20220;-63
2023/05/01 07:11:25;;;;;;;0.50;0.50;;;17.30;58.50;;;17.27;42.21;94963.66;5095461;28;20287;-63
2023/05/01 07:13:53;;;;;;;0.60;0.60;;;17.30;58.50;;;17.27;41.74;94958.38;5094904;28;20260;-63
2023/05/01 07:16:20;;;;;;;0.60;0.60;;;17.30;58.40;;;17.28;42.04;94954.69;5077727;28;20194;-63
2023/05/01 07:18:47;;;;;;;0.60;0.60;;;17.30;58.50;;;17.29;41.65;94964.22;5077704;28;20194;-63
2023/05/01 07:21:14;;;;;;;0.50;0.50;;;17.30;58.50;;;17.29;41.98;94945.66;5095053;28;20198;-63
2023/05/01 07:23:42;;;;;;;0.60;0.60;;;17.30;58.40;;;17.31;41.56;94945.47;5095066;28;20217;-63
2023/05/01 07:26:09;;;;;;;0.50;0.50;;;17.30;59.70;;;17.32;41.99;94943.59;5095147;28;20194;-63
2023/05/01 07:28:36;;;;;;;0.40;0.40;;;17.30;58.40;;;17.32;42.14;94933.81;5094997;28;20220;-63
2023/05/01 07:31:03;;;;;;;0.50;0.50;;;17.30;58.40;;;17.33;41.81;94940.72;5077427;28;20190;-63
2023/05/01 07:33:30;;;;;;;0.40;0.40;;;17.30;58.50;;;17.34;42.04;94939.69;5095320;28;20684;-63
2023/05/01 07:35:58;;;;;;;0.60;0.60;;;17.30;58.50;;;17.35;42.08;94945.78;5077739;28;20266;-63
2023/05/01 07:38:25;;;;;;;0.50;0.50;;;17.30;58.50;;;17.35;42.29;94940.50;5095075;28;20194;-63
2023/05/01 07:40:53;;;;;;;0.50;0.50;;;17.30;58.50;;;17.35;41.76;94930.69;5060736;28;20520;-63
2023/05/01 07:43:20;;;;;;;0.55;0.55;;;17.30;58.60;;;17.38;42.21;94929.41;5070874;28;20551;-63
2023/05/01 07:45:59;;;;;;;0.65;0.65;;;17.30;58.70;;;17.39;41.64;94933.69;5081893;28;20194;-63
2023/05/01 07:48:27;;;;;;;0.60;0.60;;;17.30;58.70;;;17.39;42.04;94929.19;5094339;28;20300;-63
2023/05/01 07:50:55;;;;;;;0.60;0.60;;;17.40;58.90;;;17.40;42.32;94924.69;5060887;28;20203;-63
2023/05/01 07:53:22;;;;;;;0.50;0.50;;;17.30;58.60;;;17.41;41.97;94926.31;5057126;28;20244;-63
2023/05/01 07:55:50;;;;;;;0.60;0.60;;;17.40;58.80;;;17.42;41.99;94920.75;5074838;28;20198;-63
2023/05/01 07:58:17;;;;;;;0.70;0.70;;;17.40;58.70;;;17.42;42.07;94926.06;5063358;28;20199;-40
2023/05/01 08:00:45;;;;;;;0.60;0.60;;;17.40;58.70;;;17.42;41.80;94922.63;5079223;28;20210;-42
2023/05/01 08:03:12;;;;;;;0.50;0.50;;;17.40;58.40;;;17.43;41.45;94924.19;5074759;28;20251;-41
2023/05/01 08:05:41;;;;;;;0.50;0.50;;;17.40;58.20;;;17.41;41.47;94908.53;5074507;28;20648;-41
2023/05/01 08:08:08;;;;;;;0.50;0.50;;;17.40;58.00;;;17.40;41.26;94922.81;5074637;28;20187;-40
2023/05/01 08:23:41;;;;;;;0.50;0.50;;;17.40;57.00;;;18.26;39.60;94888.59;5113027;27;20521;-50
2023/05/01 08:26:08;;;;;;;0.50;0.50;;;17.90;57.60;;;18.24;40.13;94883.53;5092484;28;20205;-52
2023/05/01 08:28:36;;;;;;;0.43;0.43;;;18.00;57.30;;;18.22;39.71;94885.63;5084000;28;20220;-49
2023/05/01 08:31:03;;;;;;;0.50;0.50;;;18.10;56.70;;;18.18;39.76;94879.97;5072454;28;20207;-49
2023/05/01 08:33:30;;;;;;;0.40;0.40;;;18.20;56.50;;;18.14;39.66;94876.19;5092154;28;20273;-51
2023/05/01 08:35:58;;;;;;;0.50;0.50;;;18.20;56.30;;;18.11;39.89;94881.19;5092342;28;20285;-50
2023/05/01 08:38:25;;;;;;;0.40;0.40;;;18.20;56.10;;;18.04;39.19;94876.00;5091980;28;20191;-50
2023/05/01 08:40:53;;;;;;;0.57;0.57;;;18.20;56.00;;;17.97;39.63;94878.84;5092428;28;20183;-53
2023/05/01 08:43:21;;;;;;;0.57;0.57;;;18.10;55.90;;;17.90;39.55;94870.19;5071997;28;20198;-54
2023/05/01 08:45:50;;;;;;;0.50;0.50;;;18.00;55.70;;;17.85;39.19;94878.06;5071675;28;20244;-51
2023/05/01 08:48:17;;;;;;;0.40;0.40;;;17.90;55.80;;;17.80;39.98;94878.78;5070985;28;20199;-52
2023/05/01 08:50:46;;;;;;;0.50;0.50;;;17.90;56.00;;;17.76;39.71;94875.78;5071283;28;20194;-52
2023/05/01 08:53:17;;;;;;;0.50;0.50;;;17.80;56.10;;;17.76;40.08;94880.31;5090863;28;20230;-53
2023/05/01 08:55:47;;;;;;;0.60;0.60;;;17.80;56.20;;;17.76;39.72;94872.34;5086841;28;20256;-52
2023/05/01 08:58:17;;;;;;;0.45;0.45;;;17.70;56.30;;;17.72;39.95;94869.34;5078089;28;20217;-51
2023/05/01 09:00:45;;;;;;;0.40;0.40;;;17.70;56.40;;;17.72;40.04;94871.19;5092238;28;20187;-52
2023/05/01 09:03:13;;;;;;;0.47;0.47;;;17.70;56.50;;;17.72;40.11;94873.84;5091627;28;20285;-53
2023/05/01 09:05:40;;;;;;;0.40;0.40;;;17.70;56.50;;;17.71;39.86;94874.88;5091520;28;20698;-50
2023/05/01 09:08:08;;;;;;;0.50;0.50;;;17.70;56.70;;;17.71;40.14;94864.28;5091482;28;20221;-49
2023/05/01 09:10:45;;;;;;;0.40;0.40;;;17.70;56.90;;;17.71;40.01;94869.56;5091857;28;20609;-52
2023/05/01 09:13:11;;;;;;;0.40;0.40;;;17.70;57.00;;;17.72;40.35;94869.34;5091819;28;20288;-50
2023/05/01 09:15:39;;;;;;;0.50;0.50;;;17.70;57.00;;;17.73;40.21;94873.59;5089130;28;20179;-51
2023/05/01 09:18:07;;;;;;;0.55;0.55;;;17.60;57.00;;;17.73;40.03;94870.94;5071603;28;20622;-52
2023/05/01 09:20:36;;;;;;;0.50;0.50;;;17.60;56.90;;;17.73;39.94;94862.19;5070222;28;20187;-50
2023/05/01 09:23:04;;;;;;;0.50;0.50;;;17.60;57.00;;;17.76;40.45;94869.69;5065476;28;20237;-50
2023/05/01 09:25:31;;;;;;;0.43;0.43;;;17.60;57.10;;;17.76;40.20;94867.03;5056969;28;20199;-55
2023/05/01 09:27:58;;;;;;;0.50;0.50;;;17.70;57.00;;;17.76;40.65;94862.53;5058017;28;20191;-51
2023/05/01 09:30:34;;;;;;;0.60;0.60;;;17.70;57.10;;;17.76;40.13;94859.88;5057632;28;20192;-50
2023/05/01 09:33:09;;;;;;;0.40;0.40;;;17.70;56.90;;;17.76;40.14;94857.22;5057568;28;20582;-54
2023/05/01 09:35:57;;;;;;;0.60;0.60;;;17.70;57.00;;;17.75;40.07;94852.94;5057884;28;20179;-54
2023/05/01 09:38:26;;;;;;;0.50;0.50;;;17.70;56.90;;;17.75;40.22;94850.31;5057585;28;20576;-54
2023/05/01 09:41:03;;;;;;;0.60;0.60;;;17.70;57.00;;;17.76;40.38;94848.47;5057376;28;20260;-49
2023/05/01 09:43:30;;;;;;;0.47;0.47;;;17.70;57.10;;;17.77;40.49;94850.88;5057664;28;20198;-51
2023/05/01 09:46:03;;;;;;;0.50;0.50;;;17.70;57.20;;;17.77;40.70;94850.88;5058235;28;20219;-50
2023/05/01 09:48:31;;;;;;;0.50;0.50;;;17.70;57.10;;;17.79;40.73;94849.84;5056686;28;20176;-51
2023/05/01 09:51:36;;;;;;;0.50;0.50;;;17.70;57.00;;;17.76;40.04;94848.47;5057743;28;20180;-51
2023/05/01 09:54:05;;;;;;;0.45;0.45;;;17.70;57.00;;;17.75;40.23;94845.00;5057762;28;20194;-51
2023/05/01 09:56:33;;;;;;;0.47;0.47;;;17.70;57.00;;;17.73;40.48;94831.16;5057205;28;20195;-54
2023/05/01 09:59:18;;;;;;;0.50;0.50;;;17.70;57.00;;;17.75;40.43;94849.50;5056290;28;20619;-49
2023/05/01 10:01:48;;;;;;;0.40;0.40;;;17.70;56.90;;;17.75;40.43;94842.34;5057308;28;20540;-51
2023/05/01 10:04:16;;;;;;;0.40;0.40;;;17.70;57.10;;;17.75;40.45;94839.69;5056040;28;20552;-50
2023/05/01 10:06:43;;;;;;;0.50;0.50;;;17.70;57.20;;;17.79;40.63;94841.88;5057022;28;20199;-51
2023/05/01 10:09:15;;;;;;;0.40;0.40;;;17.70;57.30;;;17.79;40.79;94840.00;5056949;28;20203;-51
2023/05/01 10:11:49;;;;;;;0.47;0.47;;;17.70;57.20;;;17.81;40.69;94837.94;5057233;28;20203;-54
2023/05/01 10:14:19;;;;;;;0.50;0.50;;;17.70;57.30;;;17.83;40.19;94845.66;5057206;28;20183;-62
2023/05/01 10:16:46;;;;;;;0.40;0.40;;;17.70;57.30;;;17.84;40.58;94836.66;5056533;28;20190;-53
2023/05/01 10:19:16;;;;;;;0.50;0.50;;;17.70;57.40;;;17.85;40.42;94839.06;5056886;28;20191;-51
2023/05/01 10:21:43;;;;;;;0.50;0.50;;;17.70;58.70;;;17.88;41.05;94827.16;5056684;28;20245;-52
2023/05/01 10:24:11;;;;;;;0.40;0.40;;;17.70;57.40;;;17.89;40.31;94834.91;5057057;28;20591;-51
2023/05/01 10:26:38;;;;;;;0.50;0.50;;;17.70;57.50;;;17.90;40.67;94830.38;5056646;28;20215;-53
2023/05/01 10:29:05;;;;;;;0.50;0.50;;;17.70;57.50;;;17.90;41.06;94833.84;5055597;28;20203;-50
2023/05/01 10:31:32;;;;;;;0.45;0.45;;;17.80;57.70;;;17.92;40.93;94823.78;5092414;28;20289;-50
2023/05/01 10:34:02;;;;;;;0.50;0.50;;;17.80;57.80;;;17.95;41.09;94819.88;5076616;28;20198;-49
2023/05/01 10:36:58;;;;;;;0.50;0.50;;;17.80;57.90;;;17.95;40.97;94817.22;5076109;28;20254;-49
2023/05/01 10:39:34;;;;;;;0.50;0.50;;;17.80;58.10;;;18.00;41.08;94819.97;5066865;28;20203;-51
2023/05/01 10:42:09;;;;;;;0.50;0.50;;;17.80;59.50;;;18.04;41.35;94820.28;5058762;28;20191;-55
2023/05/01 10:44:37;;;;;;;0.50;0.50;;;17.90;58.30;;;18.08;41.01;94826.75;5076096;28;20186;-52
2023/05/01 10:47:23;;;;;;;0.40;0.40;;;17.90;58.30;;;18.10;41.51;94829.13;5075284;28;20618;-51